createdAt,value
2018-07-25T00:01:50.514Z,99.90
2018-07-25T00:04:18.053Z,99.90
2018-07-25T00:06:45.618Z,99.90
2018-07-25T00:09:13.189Z,99.90
2018-07-25T00:11:40.745Z,99.90
2018-07-25T00:14:08.339Z,99.90
2018-07-25T00:16:36.674Z,99.90
2018-07-25T00:19:04.465Z,99.90
2018-07-25T00:21:32.208Z,99.90
2018-07-25T00:23:59.742Z,99.90
2018-07-25T00:26:27.623Z,99.90
2018-07-25T00:28:55.150Z,99.90
2018-07-25T00:31:22.842Z,99.90
2018-07-25T00:33:50.418Z,99.90
2018-07-25T00:36:18.058Z,99.90
2018-07-25T00:38:45.617Z,99.90
2018-07-25T00:41:13.226Z,99.90
2018-07-25T00:43:40.790Z,99.90
2018-07-25T00:46:08.446Z,99.90
2018-07-25T00:48:36.006Z,99.90
2018-07-25T00:51:03.550Z,99.90
2018-07-25T00:53:31.116Z,99.90
2018-07-25T00:55:58.658Z,99.90
2018-07-25T00:58:26.240Z,99.90
2018-07-25T01:00:53.832Z,99.90
2018-07-25T01:03:21.384Z,99.90
2018-07-25T01:05:48.972Z,99.90
2018-07-25T01:08:16.568Z,99.90
2018-07-25T01:10:44.238Z,99.90
2018-07-25T01:13:12.340Z,99.90
2018-07-25T01:15:40.030Z,99.90
2018-07-25T01:18:07.771Z,99.90
2018-07-25T01:20:35.296Z,99.90
2018-07-25T01:23:02.856Z,99.90
2018-07-25T01:25:30.530Z,99.90
2018-07-25T01:27:58.112Z,99.90
2018-07-25T01:30:25.686Z,99.90
2018-07-25T01:32:53.241Z,99.90
2018-07-25T01:37:48.234Z,99.90
2018-07-25T01:40:15.791Z,99.90
2018-07-25T01:42:43.465Z,99.90
2018-07-25T01:45:10.999Z,99.90
2018-07-25T01:47:38.609Z,99.90
2018-07-25T01:50:06.649Z,99.90
2018-07-25T01:52:34.259Z,99.90
2018-07-25T01:55:02.014Z,99.90
2018-07-25T01:57:29.587Z,99.90
2018-07-25T01:59:57.189Z,99.90
2018-07-25T02:02:24.769Z,99.90
2018-07-25T02:04:52.397Z,99.90
2018-07-25T02:07:19.985Z,99.90
2018-07-25T02:09:47.539Z,99.90
2018-07-25T02:12:15.089Z,99.90
2018-07-25T02:14:42.707Z,99.90
2018-07-25T02:17:10.228Z,99.90
2018-07-25T02:19:37.797Z,99.90
2018-07-25T02:22:05.409Z,99.90
2018-07-25T02:24:32.957Z,99.90
2018-07-25T02:27:00.483Z,99.90
2018-07-25T02:29:28.076Z,99.90
2018-07-25T02:31:55.627Z,99.90
2018-07-25T02:34:23.209Z,99.90
2018-07-25T02:36:51.638Z,99.90
2018-07-25T02:39:19.235Z,99.90
2018-07-25T02:41:46.859Z,99.90
2018-07-25T02:44:14.519Z,99.90
2018-07-25T02:46:42.124Z,99.90
2018-07-25T02:49:09.899Z,99.90
2018-07-25T02:51:37.498Z,99.90
2018-07-25T02:54:05.525Z,99.90
2018-07-25T02:56:33.314Z,99.90
2018-07-25T02:59:01.377Z,99.90
2018-07-25T03:01:28.966Z,99.90
2018-07-25T03:03:56.506Z,99.90
2018-07-25T03:06:24.114Z,99.90
2018-07-25T03:08:51.636Z,99.90
2018-07-25T03:11:19.283Z,99.90
2018-07-25T03:13:46.891Z,99.90
2018-07-25T03:16:14.444Z,99.90
2018-07-25T03:18:42.055Z,99.90
2018-07-25T03:21:09.630Z,99.90
2018-07-25T03:23:37.161Z,99.90
2018-07-25T03:26:04.710Z,99.90
2018-07-25T03:28:32.305Z,99.90
2018-07-25T03:31:00.481Z,99.90
2018-07-25T03:33:28.108Z,99.90
2018-07-25T03:35:56.768Z,99.90
2018-07-25T03:40:52.131Z,99.90
2018-07-25T03:43:19.731Z,99.90
2018-07-25T03:45:47.269Z,99.90
2018-07-25T03:48:14.843Z,99.90
2018-07-25T03:50:42.394Z,99.90
2018-07-25T03:53:09.986Z,99.90
2018-07-25T03:55:37.689Z,99.90
2018-07-25T03:58:05.327Z,99.90
2018-07-25T04:07:55.553Z,99.90
2018-07-25T04:10:23.085Z,99.90
2018-07-25T04:12:50.724Z,99.90
2018-07-25T04:15:18.328Z,99.90
2018-07-25T04:17:47.575Z,99.90
2018-07-25T04:20:16.210Z,99.90
2018-07-25T04:22:43.848Z,99.90
2018-07-25T04:25:11.486Z,99.90
2018-07-25T04:27:40.872Z,99.90
2018-07-25T04:30:09.714Z,99.90
2018-07-25T04:32:37.624Z,99.90
2018-07-25T04:35:05.380Z,99.90
2018-07-25T04:37:32.986Z,99.90
2018-07-25T04:40:00.631Z,99.90
2018-07-25T04:42:28.242Z,99.90
2018-07-25T04:44:55.768Z,99.90
2018-07-25T04:47:23.344Z,99.90
2018-07-25T04:49:50.908Z,99.90
2018-07-25T04:52:18.470Z,99.90
2018-07-25T04:54:46.196Z,99.90
2018-07-25T04:57:13.810Z,99.90
2018-07-25T04:59:41.796Z,99.90
2018-07-25T05:02:09.682Z,99.90
2018-07-25T05:04:37.294Z,99.90
2018-07-25T05:07:04.968Z,99.90
2018-07-25T05:12:06.686Z,99.90
2018-07-25T05:14:40.862Z,99.90
2018-07-25T05:17:08.460Z,99.90
2018-07-25T05:19:36.046Z,99.90
2018-07-25T05:22:03.722Z,99.90
2018-07-25T05:24:31.324Z,99.90
2018-07-25T05:26:58.886Z,99.90
2018-07-25T05:29:27.964Z,99.90
2018-07-25T05:31:55.601Z,99.90
2018-07-25T05:34:23.314Z,99.90
2018-07-25T05:36:50.888Z,99.90
2018-07-25T05:39:35.212Z,99.90
2018-07-25T05:42:02.874Z,99.90
2018-07-25T05:44:30.474Z,99.90
2018-07-25T05:46:58.118Z,99.90
2018-07-25T05:49:25.769Z,99.90
2018-07-25T05:51:53.361Z,99.90
2018-07-25T05:54:20.986Z,99.90
2018-07-25T05:56:48.607Z,99.90
2018-07-25T05:59:16.138Z,99.90
2018-07-25T06:01:43.736Z,99.90
2018-07-25T06:04:11.322Z,99.90
2018-07-25T06:06:38.872Z,99.90
2018-07-25T06:09:07.722Z,99.70
2018-07-25T06:11:35.422Z,99.60
2018-07-25T06:14:03.048Z,99.50
2018-07-25T06:16:30.691Z,99.30
2018-07-25T06:18:58.276Z,99.20
2018-07-25T06:21:25.826Z,98.90
2018-07-25T06:23:53.385Z,98.60
2018-07-25T06:26:20.926Z,98.30
2018-07-25T06:28:48.468Z,97.70
2018-07-25T06:31:16.095Z,97.40
2018-07-25T06:33:43.630Z,97.80
2018-07-25T06:36:11.182Z,97.30
2018-07-25T06:38:38.728Z,96.90
2018-07-25T06:41:06.294Z,96.80
2018-07-25T06:43:33.891Z,96.40
2018-07-25T06:46:01.395Z,96.20
2018-07-25T06:48:28.955Z,95.70
2018-07-25T06:50:56.507Z,95.50
2018-07-25T06:53:24.105Z,94.90
2018-07-25T06:55:51.642Z,94.60
2018-07-25T06:58:19.183Z,94.00
2018-07-25T07:00:46.740Z,93.60
2018-07-25T07:03:14.259Z,93.30
2018-07-25T07:05:41.835Z,93.40
2018-07-25T07:08:09.404Z,93.50
2018-07-25T07:10:36.977Z,93.50
2018-07-25T07:13:04.702Z,93.20
2018-07-25T07:15:32.332Z,92.80
2018-07-25T07:17:59.868Z,92.30
2018-07-25T07:20:27.457Z,92.00
2018-07-25T07:22:55.033Z,91.90
2018-07-25T07:25:22.603Z,91.90
2018-07-25T07:27:50.160Z,91.60
2018-07-25T07:30:17.713Z,91.20
2018-07-25T07:32:45.289Z,90.90
2018-07-25T07:35:12.973Z,91.00
2018-07-25T07:37:40.524Z,91.00
2018-07-25T07:40:08.098Z,90.90
2018-07-25T07:42:35.692Z,90.30
2018-07-25T07:45:03.467Z,90.10
2018-07-25T07:47:31.060Z,88.10
2018-07-25T07:49:58.688Z,86.20
2018-07-25T07:52:26.244Z,85.70
2018-07-25T07:54:53.823Z,84.40
2018-07-25T07:57:21.375Z,82.20
2018-07-25T07:59:48.974Z,79.70
2018-07-25T08:02:16.598Z,79.50
2018-07-25T08:04:44.160Z,77.10
2018-07-25T08:07:11.749Z,77.50
2018-07-25T08:09:39.301Z,77.50
2018-07-25T08:12:06.930Z,75.70
2018-07-25T08:14:34.506Z,77.10
2018-07-25T08:17:02.115Z,76.50
2018-07-25T08:19:29.689Z,76.20
2018-07-25T08:21:57.253Z,75.40
2018-07-25T08:24:24.799Z,75.20
2018-07-25T08:26:52.417Z,74.20
2018-07-25T08:29:20.098Z,74.50
2018-07-25T08:31:47.713Z,74.80
2018-07-25T08:34:15.311Z,74.50
2018-07-25T08:36:42.873Z,74.90
2018-07-25T08:41:38.786Z,73.80
2018-07-25T08:44:06.545Z,73.50
2018-07-25T08:46:34.123Z,72.50
2018-07-25T08:49:01.680Z,71.10
2018-07-25T08:51:29.293Z,70.20
2018-07-25T08:53:56.893Z,71.00
2018-07-25T08:58:51.966Z,71.40
2018-07-25T09:01:19.587Z,71.30
2018-07-25T09:03:47.152Z,70.30
2018-07-25T09:06:14.725Z,70.30
2018-07-25T09:08:42.574Z,70.40
2018-07-25T09:11:10.192Z,68.40
2018-07-25T09:13:37.792Z,68.70
2018-07-25T09:18:33.000Z,68.40
2018-07-25T09:21:00.587Z,67.80
2018-07-25T09:23:28.236Z,69.20
2018-07-25T09:25:55.814Z,68.40
2018-07-25T09:28:23.488Z,67.30
2018-07-25T09:30:51.078Z,67.30
2018-07-25T09:33:18.621Z,66.70
2018-07-25T09:35:46.211Z,67.60
2018-07-25T09:38:13.758Z,68.50
2018-07-25T09:40:41.354Z,68.80
2018-07-25T09:43:08.972Z,67.70
2018-07-25T09:45:36.562Z,66.20
2018-07-25T09:48:04.215Z,67.10
2018-07-25T09:53:06.089Z,66.10
2018-07-25T09:55:33.624Z,66.20
2018-07-25T09:58:01.185Z,66.00
2018-07-25T10:00:34.382Z,66.00
2018-07-25T10:03:01.991Z,64.20
2018-07-25T10:05:29.580Z,63.50
2018-07-25T10:07:57.214Z,63.50
2018-07-25T10:10:24.836Z,62.60
2018-07-25T10:15:19.952Z,60.60
2018-07-25T10:17:47.538Z,59.10
2018-07-25T10:20:15.145Z,59.50
2018-07-25T10:22:42.800Z,59.50
2018-07-25T10:25:10.388Z,58.00
2018-07-25T10:27:37.940Z,57.10
2018-07-25T10:30:05.618Z,56.80
2018-07-25T10:32:33.214Z,56.20
2018-07-25T10:35:00.804Z,55.30
2018-07-25T10:37:28.376Z,55.30
2018-07-25T10:39:55.951Z,54.40
2018-07-25T10:42:23.572Z,53.20
2018-07-25T10:44:51.162Z,52.70
2018-07-25T10:47:18.768Z,51.80
2018-07-25T10:49:46.344Z,51.30
2018-07-25T10:52:13.970Z,51.50
2018-07-25T10:54:41.570Z,50.40
2018-07-25T10:57:09.166Z,50.50
2018-07-25T10:59:36.723Z,50.00
2018-07-25T11:02:04.370Z,50.70
2018-07-25T11:04:31.904Z,52.60
2018-07-25T11:06:59.437Z,52.30
2018-07-25T11:09:27.001Z,52.50
2018-07-25T11:11:54.569Z,52.20
2018-07-25T11:14:22.131Z,53.00
2018-07-25T11:16:49.808Z,52.50
2018-07-25T11:19:17.348Z,51.20
2018-07-25T11:21:44.938Z,47.80
2018-07-25T11:24:12.484Z,47.70
2018-07-25T11:26:40.299Z,47.10
2018-07-25T11:29:07.881Z,47.80
2018-07-25T11:31:35.429Z,47.00
2018-07-25T11:34:03.008Z,46.90
2018-07-25T11:36:30.601Z,47.60
2018-07-25T11:43:53.152Z,49.00
2018-07-25T11:46:20.684Z,47.00
2018-07-25T11:48:48.234Z,45.70
2018-07-25T11:51:15.902Z,44.40
2018-07-25T11:53:43.467Z,44.10
2018-07-25T11:56:11.043Z,43.10
2018-07-25T11:58:38.626Z,42.70
2018-07-25T12:01:06.249Z,42.00
2018-07-25T12:03:33.788Z,41.70
2018-07-25T12:06:01.393Z,41.00
2018-07-25T12:08:28.961Z,40.40
2018-07-25T12:10:56.651Z,38.90
2018-07-25T12:13:24.282Z,38.80
2018-07-25T12:15:51.872Z,39.50
2018-07-25T12:18:19.490Z,37.60
2018-07-25T12:20:47.040Z,37.50
2018-07-25T12:23:14.617Z,39.50
2018-07-25T12:25:42.170Z,40.50
2018-07-25T12:28:09.743Z,40.50
2018-07-25T12:30:37.337Z,42.20
2018-07-25T12:33:04.952Z,44.90
2018-07-25T12:38:00.019Z,51.50
2018-07-25T12:40:27.633Z,54.50
2018-07-25T12:42:55.239Z,58.40
2018-07-25T12:45:22.802Z,61.10
2018-07-25T12:47:50.411Z,64.80
2018-07-25T12:50:17.986Z,67.00
2018-07-25T12:52:45.564Z,67.80
2018-07-25T12:55:13.142Z,69.20
2018-07-25T12:57:40.719Z,71.20
2018-07-25T13:00:08.568Z,74.00
2018-07-25T13:02:36.181Z,75.80
2018-07-25T13:05:04.814Z,77.60
2018-07-25T13:09:59.915Z,83.90
2018-07-25T13:12:27.534Z,86.00
2018-07-25T13:17:22.735Z,91.00
2018-07-25T13:19:50.341Z,90.70
2018-07-25T13:22:17.931Z,87.10
2018-07-25T13:24:45.514Z,85.20
2018-07-25T13:27:13.135Z,83.60
2018-07-25T13:29:40.760Z,80.20
2018-07-25T13:32:08.373Z,82.00
2018-07-25T13:34:35.969Z,84.40
2018-07-25T13:37:03.663Z,87.00
2018-07-25T13:41:58.814Z,90.50
2018-07-25T13:46:53.964Z,91.80
2018-07-25T13:49:21.643Z,92.40
2018-07-25T13:51:49.269Z,92.50
2018-07-25T13:54:16.879Z,92.40
2018-07-25T13:56:44.429Z,92.20
2018-07-25T13:59:12.089Z,92.90
2018-07-25T14:01:39.666Z,90.90
2018-07-25T14:04:07.264Z,86.00
2018-07-25T14:06:34.821Z,83.40
2018-07-25T14:09:02.559Z,80.40
2018-07-25T14:11:30.240Z,78.00
2018-07-25T14:13:57.910Z,74.30
2018-07-25T14:16:25.444Z,70.90
2018-07-25T14:18:53.056Z,66.80
2018-07-25T14:21:20.637Z,62.70
2018-07-25T14:23:48.285Z,59.30
2018-07-25T14:26:15.832Z,57.20
2018-07-25T14:28:43.382Z,56.50
2018-07-25T14:31:10.988Z,55.80
2018-07-25T14:33:38.554Z,56.70
2018-07-25T14:36:06.171Z,55.30
2018-07-25T14:38:33.814Z,51.60
2018-07-25T14:41:01.448Z,51.90
2018-07-25T14:43:29.037Z,52.70
2018-07-25T14:45:56.578Z,54.60
2018-07-25T14:48:24.170Z,54.70
2018-07-25T14:50:51.769Z,54.00
2018-07-25T14:55:46.897Z,53.60
2018-07-25T14:58:14.507Z,54.90
2018-07-25T15:00:42.105Z,56.00
2018-07-25T15:03:09.735Z,56.40
2018-07-25T15:05:37.358Z,57.10
2018-07-25T15:08:05.638Z,57.60
2018-07-25T15:10:33.415Z,58.40
2018-07-25T15:13:01.072Z,61.00
2018-07-25T15:15:28.695Z,65.50
2018-07-25T15:17:56.656Z,69.30
2018-07-25T15:20:24.313Z,71.40
2018-07-25T15:22:52.015Z,76.60
2018-07-25T15:25:19.524Z,80.80
2018-07-25T15:27:47.138Z,83.20
2018-07-25T15:30:14.769Z,89.00
2018-07-25T15:32:42.416Z,92.00
2018-07-25T15:35:10.323Z,93.10
2018-07-25T15:37:38.217Z,93.50
2018-07-25T15:40:06.514Z,93.90
2018-07-25T15:42:34.097Z,94.50
2018-07-25T15:45:01.838Z,95.10
2018-07-25T15:47:29.496Z,94.90
2018-07-25T15:49:57.066Z,95.30
2018-07-25T15:52:24.675Z,95.90
2018-07-25T15:54:52.320Z,97.20
2018-07-25T15:57:19.944Z,97.50
2018-07-25T15:59:47.739Z,98.00
2018-07-25T16:02:15.318Z,98.10
2018-07-25T16:04:43.181Z,98.00
2018-07-25T16:07:10.913Z,98.10
2018-07-25T16:09:38.685Z,98.00
2018-07-25T16:12:06.363Z,97.80
2018-07-25T16:14:33.969Z,97.60
2018-07-25T16:17:01.642Z,97.40
2018-07-25T16:19:29.246Z,97.40
2018-07-25T16:21:56.911Z,97.10
2018-07-25T16:24:24.551Z,97.00
2018-07-25T16:26:52.185Z,96.30
2018-07-25T16:29:19.983Z,95.20
2018-07-25T16:31:47.578Z,93.60
2018-07-25T16:34:15.157Z,92.40
2018-07-25T16:36:42.822Z,90.80
2018-07-25T16:39:13.451Z,87.60
2018-07-25T16:41:41.086Z,83.90
2018-07-25T16:44:08.698Z,81.50
2018-07-25T16:46:36.354Z,82.10
2018-07-25T16:49:04.066Z,82.00
2018-07-25T16:51:31.677Z,82.20
2018-07-25T16:53:59.337Z,83.50
2018-07-25T16:56:26.987Z,85.60
2018-07-25T16:58:54.577Z,85.60
2018-07-25T17:01:22.270Z,85.40
2018-07-25T17:03:50.032Z,84.30
2018-07-25T17:06:17.657Z,83.50
2018-07-25T17:08:45.261Z,84.30
2018-07-25T17:11:12.887Z,86.30
2018-07-25T17:13:40.534Z,89.00
2018-07-25T17:16:08.424Z,90.60
2018-07-25T17:18:36.018Z,91.60
2018-07-25T17:21:07.218Z,92.20
2018-07-25T17:23:34.838Z,92.30
2018-07-25T17:26:02.484Z,92.60
2018-07-25T17:28:30.153Z,93.00
2018-07-25T17:30:57.768Z,92.50
2018-07-25T17:33:25.454Z,92.20
2018-07-25T17:38:20.898Z,92.20
2018-07-25T17:45:43.722Z,91.90
2018-07-25T17:48:11.421Z,91.40
2018-07-25T17:53:06.654Z,91.60
2018-07-25T17:55:34.349Z,91.70
2018-07-25T17:58:04.407Z,92.30
2018-07-25T18:00:32.078Z,92.80
2018-07-25T18:02:59.774Z,92.60
2018-07-25T18:05:27.455Z,92.50
2018-07-25T18:07:55.269Z,92.10
2018-07-25T18:10:22.970Z,91.90
2018-07-25T18:12:55.221Z,91.90
2018-07-25T18:15:23.409Z,92.30
2018-07-25T18:17:51.164Z,92.40
2018-07-25T18:20:18.883Z,92.70
2018-07-25T18:22:46.624Z,93.10
2018-07-25T18:25:14.307Z,93.40
2018-07-25T18:27:42.119Z,93.50
2018-07-25T18:30:09.824Z,93.60
2018-07-25T18:32:37.553Z,94.20
2018-07-25T18:35:05.318Z,94.80
2018-07-25T18:37:33.006Z,95.50
2018-07-25T18:40:00.738Z,95.80
2018-07-25T18:42:28.475Z,95.90
2018-07-25T18:44:56.229Z,96.20
2018-07-25T18:47:23.952Z,96.70
2018-07-25T18:49:51.670Z,96.90
2018-07-25T18:52:19.387Z,96.90
2018-07-25T18:54:47.157Z,96.90
2018-07-25T18:57:14.889Z,97.20
2018-07-25T18:59:42.566Z,97.40
2018-07-25T19:02:10.318Z,97.70
2018-07-25T19:04:38.011Z,98.00
2018-07-25T19:07:06.667Z,98.40
2018-07-25T19:09:35.737Z,99.00
2018-07-25T19:14:36.818Z,99.70
2018-07-25T19:19:39.261Z,99.80
2018-07-25T19:22:06.944Z,99.80
2018-07-25T19:24:34.619Z,99.90
2018-07-25T19:27:02.732Z,99.90
2018-07-25T19:29:30.426Z,99.90
2018-07-25T19:31:59.154Z,99.90
2018-07-25T19:34:26.913Z,99.90
2018-07-25T19:36:54.635Z,99.90
2018-07-25T19:39:22.351Z,99.90
2018-07-25T19:41:49.994Z,99.90
2018-07-25T19:44:17.661Z,99.90
2018-07-25T19:46:46.916Z,99.90
2018-07-25T19:49:14.556Z,99.90
2018-07-25T19:51:42.262Z,99.90
2018-07-25T19:54:10.010Z,99.90
2018-07-25T19:56:37.690Z,99.90
2018-07-25T19:59:05.731Z,99.90
2018-07-25T20:01:33.431Z,99.90
2018-07-25T20:04:01.116Z,99.90
2018-07-25T20:08:56.537Z,99.90
2018-07-25T20:11:24.318Z,99.90
2018-07-25T20:13:57.778Z,99.90
2018-07-25T20:16:25.481Z,99.90
2018-07-25T20:21:20.904Z,99.90
2018-07-25T20:23:49.629Z,99.90
2018-07-25T20:26:17.246Z,99.90
2018-07-25T20:28:44.853Z,99.90
2018-07-25T20:31:12.537Z,99.90
2018-07-25T20:33:40.174Z,99.90
2018-07-25T20:36:07.829Z,99.90
2018-07-25T20:38:35.473Z,99.90
2018-07-25T20:41:03.151Z,99.90
2018-07-25T20:43:30.835Z,99.90
2018-07-25T20:45:58.432Z,99.90
2018-07-25T20:48:26.057Z,99.90
2018-07-25T20:50:53.608Z,99.90
2018-07-25T20:53:21.351Z,99.90
2018-07-25T20:55:49.037Z,99.90
2018-07-25T20:58:16.672Z,99.90
2018-07-25T21:00:44.278Z,99.90
2018-07-25T21:03:11.914Z,99.90
2018-07-25T21:08:07.035Z,99.90
2018-07-25T21:10:34.687Z,99.90
2018-07-25T21:13:02.268Z,99.90
2018-07-25T21:15:29.836Z,99.90
2018-07-25T21:17:57.428Z,99.90
2018-07-25T21:20:25.084Z,99.90
2018-07-25T21:22:52.706Z,99.90
2018-07-25T21:25:20.304Z,99.90
2018-07-25T21:27:47.914Z,99.90
2018-07-25T21:30:15.470Z,99.90
2018-07-25T21:32:43.131Z,99.90
2018-07-25T21:37:38.145Z,99.90
2018-07-25T21:40:05.764Z,99.90
2018-07-25T21:42:33.359Z,99.90
2018-07-25T21:45:01.315Z,99.90
2018-07-25T21:47:28.873Z,99.90
2018-07-25T21:49:56.476Z,99.90
2018-07-25T21:52:24.070Z,99.90
2018-07-25T21:54:51.624Z,99.90
2018-07-25T21:57:19.215Z,99.90
2018-07-25T21:59:46.852Z,99.90
2018-07-25T22:02:14.539Z,99.90
2018-07-25T22:04:42.138Z,99.90
2018-07-25T22:07:09.713Z,99.90
2018-07-25T22:09:37.320Z,99.90
2018-07-25T22:12:04.901Z,99.90
2018-07-25T22:14:32.510Z,99.90
2018-07-25T22:17:00.070Z,99.90
2018-07-25T22:19:27.687Z,99.90
2018-07-25T22:24:22.822Z,99.90
2018-07-25T22:26:50.476Z,99.90
2018-07-25T22:29:18.071Z,99.90
2018-07-25T22:31:45.674Z,99.90
2018-07-25T22:34:13.286Z,99.90
2018-07-25T22:36:40.861Z,99.90
2018-07-25T22:39:09.591Z,99.90
2018-07-25T22:41:37.275Z,99.90
2018-07-25T22:44:05.072Z,99.90
2018-07-25T22:46:32.662Z,99.90
2018-07-25T22:49:00.488Z,99.90
2018-07-25T22:51:28.120Z,99.90
2018-07-25T22:53:55.757Z,99.90
2018-07-25T22:56:23.329Z,99.90
2018-07-25T23:01:18.408Z,99.90
2018-07-25T23:03:46.019Z,99.90
2018-07-25T23:06:13.590Z,99.90
2018-07-25T23:08:41.168Z,99.90
2018-07-25T23:11:09.031Z,99.90
2018-07-25T23:13:36.675Z,99.90
2018-07-25T23:16:04.421Z,99.90
2018-07-25T23:18:32.033Z,99.90
2018-07-25T23:20:59.643Z,99.90
2018-07-25T23:23:27.064Z,99.90
2018-07-25T23:25:54.615Z,99.90
2018-07-25T23:28:22.207Z,99.90
2018-07-25T23:30:49.811Z,99.90
2018-07-25T23:33:17.428Z,99.90
2018-07-25T23:35:44.978Z,99.90
2018-07-25T23:38:12.597Z,99.90
2018-07-25T23:40:40.231Z,99.90
2018-07-25T23:48:03.038Z,99.90
2018-07-25T23:50:30.608Z,99.90
2018-07-25T23:52:58.162Z,99.90
2018-07-25T23:55:25.821Z,99.90
2018-07-25T23:57:53.435Z,99.90
